sensor_id;sensor_type;location;lat;lon;timestamp;temperature;humidity
28460;DHT22;32528;45.712;9.192;2023-12-20T00:01:25;3.80;97.80
28460;DHT22;32528;45.712;9.192;2023-12-20T00:03:26;3.80;97.90
28460;DHT22;32528;45.712;9.192;2023-12-20T00:05:27;3.80;97.80
28460;DHT22;32528;45.712;9.192;2023-12-20T00:07:28;3.80;97.80
28460;DHT22;32528;45.712;9.192;2023-12-20T00:09:28;3.80;97.90
28460;DHT22;32528;45.712;9.192;2023-12-20T00:11:29;3.80;98.10
28460;DHT22;32528;45.712;9.192;2023-12-20T00:13:30;3.80;98.20
28460;DHT22;32528;45.712;9.192;2023-12-20T00:15:30;3.90;98.10
28460;DHT22;32528;45.712;9.192;2023-12-20T00:17:31;3.90;97.80
28460;DHT22;32528;45.712;9.192;2023-12-20T00:19:32;3.90;98.00
28460;DHT22;32528;45.712;9.192;2023-12-20T00:21:33;3.90;98.00
28460;DHT22;32528;45.712;9.192;2023-12-20T00:23:33;3.90;98.00
28460;DHT22;32528;45.712;9.192;2023-12-20T00:25:34;4.00;98.00
28460;DHT22;32528;45.712;9.192;2023-12-20T00:27:36;4.00;97.80
28460;DHT22;32528;45.712;9.192;2023-12-20T00:29:36;4.10;97.70
28460;DHT22;32528;45.712;9.192;2023-12-20T00:31:37;4.00;97.80
28460;DHT22;32528;45.712;9.192;2023-12-20T00:33:38;4.10;97.80
28460;DHT22;32528;45.712;9.192;2023-12-20T00:35:40;4.10;97.70
28460;DHT22;32528;45.712;9.192;2023-12-20T00:37:41;4.00;97.80
28460;DHT22;32528;45.712;9.192;2023-12-20T00:39:42;4.00;98.00
28460;DHT22;32528;45.712;9.192;2023-12-20T00:41:43;3.80;98.20
28460;DHT22;32528;45.712;9.192;2023-12-20T00:43:44;3.80;98.30
28460;DHT22;32528;45.712;9.192;2023-12-20T00:45:45;3.90;98.20
28460;DHT22;32528;45.712;9.192;2023-12-20T00:47:46;3.80;98.10
28460;DHT22;32528;45.712;9.192;2023-12-20T00:49:46;3.80;98.20
28460;DHT22;32528;45.712;9.192;2023-12-20T00:51:47;3.80;98.50
28460;DHT22;32528;45.712;9.192;2023-12-20T00:53:50;3.80;98.50
28460;DHT22;32528;45.712;9.192;2023-12-20T00:55:51;3.90;98.10
28460;DHT22;32528;45.712;9.192;2023-12-20T00:57:51;3.90;98.10
28460;DHT22;32528;45.712;9.192;2023-12-20T00:59:53;3.90;98.10
28460;DHT22;32528;45.712;9.192;2023-12-20T01:01:54;3.90;98.30
28460;DHT22;32528;45.712;9.192;2023-12-20T01:03:55;3.90;98.10
28460;DHT22;32528;45.712;9.192;2023-12-20T01:05:56;3.90;98.30
28460;DHT22;32528;45.712;9.192;2023-12-20T01:07:56;3.80;98.30
28460;DHT22;32528;45.712;9.192;2023-12-20T01:09:57;3.80;98.20
28460;DHT22;32528;45.712;9.192;2023-12-20T01:11:58;4.00;98.00
28460;DHT22;32528;45.712;9.192;2023-12-20T01:13:58;4.00;97.90
28460;DHT22;32528;45.712;9.192;2023-12-20T01:15:59;4.00;98.10
28460;DHT22;32528;45.712;9.192;2023-12-20T01:18:00;3.80;98.00
28460;DHT22;32528;45.712;9.192;2023-12-20T01:20:01;4.00;97.90
28460;DHT22;32528;45.712;9.192;2023-12-20T01:22:01;4.10;97.70
28460;DHT22;32528;45.712;9.192;2023-12-20T01:24:02;4.10;98.00
28460;DHT22;32528;45.712;9.192;2023-12-20T01:26:03;3.90;97.80
28460;DHT22;32528;45.712;9.192;2023-12-20T01:28:05;3.90;98.00
28460;DHT22;32528;45.712;9.192;2023-12-20T01:30:07;3.80;98.00
28460;DHT22;32528;45.712;9.192;2023-12-20T01:32:07;3.80;97.90
28460;DHT22;32528;45.712;9.192;2023-12-20T01:34:08;3.90;97.80
28460;DHT22;32528;45.712;9.192;2023-12-20T01:36:09;4.10;97.70
28460;DHT22;32528;45.712;9.192;2023-12-20T01:38:09;4.00;97.60
28460;DHT22;32528;45.712;9.192;2023-12-20T01:40:10;3.90;97.70
28460;DHT22;32528;45.712;9.192;2023-12-20T01:42:11;3.80;98.10
28460;DHT22;32528;45.712;9.192;2023-12-20T01:44:11;3.70;98.10
28460;DHT22;32528;45.712;9.192;2023-12-20T01:46:12;3.70;98.30
28460;DHT22;32528;45.712;9.192;2023-12-20T01:48:13;3.60;98.40
28460;DHT22;32528;45.712;9.192;2023-12-20T01:50:15;3.60;98.40
28460;DHT22;32528;45.712;9.192;2023-12-20T01:52:16;3.60;98.20
28460;DHT22;32528;45.712;9.192;2023-12-20T01:54:17;3.60;98.20
28460;DHT22;32528;45.712;9.192;2023-12-20T01:56:20;3.70;98.10
28460;DHT22;32528;45.712;9.192;2023-12-20T01:58:20;3.70;98.10
28460;DHT22;32528;45.712;9.192;2023-12-20T02:00:21;3.70;98.20
28460;DHT22;32528;45.712;9.192;2023-12-20T02:02:27;3.70;98.20
28460;DHT22;32528;45.712;9.192;2023-12-20T02:04:28;3.70;98.10
28460;DHT22;32528;45.712;9.192;2023-12-20T02:06:29;3.70;98.00
28460;DHT22;32528;45.712;9.192;2023-12-20T02:08:31;3.90;97.80
28460;DHT22;32528;45.712;9.192;2023-12-20T02:10:32;3.90;97.80
28460;DHT22;32528;45.712;9.192;2023-12-20T02:12:33;4.00;97.60
28460;DHT22;32528;45.712;9.192;2023-12-20T02:14:34;4.20;97.50
28460;DHT22;32528;45.712;9.192;2023-12-20T02:16:35;4.20;97.40
28460;DHT22;32528;45.712;9.192;2023-12-20T02:18:35;4.20;97.40
28460;DHT22;32528;45.712;9.192;2023-12-20T02:20:36;4.20;97.50
28460;DHT22;32528;45.712;9.192;2023-12-20T02:22:37;4.40;97.40
28460;DHT22;32528;45.712;9.192;2023-12-20T02:24:38;4.50;97.30
28460;DHT22;32528;45.712;9.192;2023-12-20T02:26:39;4.70;97.30
28460;DHT22;32528;45.712;9.192;2023-12-20T02:28:39;4.70;97.20
28460;DHT22;32528;45.712;9.192;2023-12-20T02:30:40;4.70;97.10
28460;DHT22;32528;45.712;9.192;2023-12-20T02:32:41;4.70;97.00
28460;DHT22;32528;45.712;9.192;2023-12-20T02:34:41;4.70;97.20
28460;DHT22;32528;45.712;9.192;2023-12-20T02:36:42;4.70;97.30
28460;DHT22;32528;45.712;9.192;2023-12-20T02:38:43;4.80;97.20
28460;DHT22;32528;45.712;9.192;2023-12-20T02:40:44;4.80;97.30
28460;DHT22;32528;45.712;9.192;2023-12-20T02:42:44;4.70;97.30
28460;DHT22;32528;45.712;9.192;2023-12-20T02:44:45;4.70;97.40
28460;DHT22;32528;45.712;9.192;2023-12-20T02:46:45;4.70;97.50
28460;DHT22;32528;45.712;9.192;2023-12-20T02:48:46;4.70;97.50
28460;DHT22;32528;45.712;9.192;2023-12-20T02:50:48;4.90;97.40
28460;DHT22;32528;45.712;9.192;2023-12-20T02:52:49;5.00;97.20
28460;DHT22;32528;45.712;9.192;2023-12-20T02:54:50;5.10;97.00
28460;DHT22;32528;45.712;9.192;2023-12-20T02:56:50;5.10;96.90
28460;DHT22;32528;45.712;9.192;2023-12-20T02:58:51;5.00;97.00
28460;DHT22;32528;45.712;9.192;2023-12-20T03:00:52;4.90;97.20
28460;DHT22;32528;45.712;9.192;2023-12-20T03:02:52;4.80;97.20
28460;DHT22;32528;45.712;9.192;2023-12-20T03:04:54;4.80;97.10
28460;DHT22;32528;45.712;9.192;2023-12-20T03:06:55;4.70;97.30
28460;DHT22;32528;45.712;9.192;2023-12-20T03:08:56;4.70;97.50
28460;DHT22;32528;45.712;9.192;2023-12-20T03:10:56;4.60;97.50
28460;DHT22;32528;45.712;9.192;2023-12-20T03:12:59;4.50;97.50
28460;DHT22;32528;45.712;9.192;2023-12-20T03:14:59;4.50;97.60
28460;DHT22;32528;45.712;9.192;2023-12-20T03:17:00;4.40;97.70
28460;DHT22;32528;45.712;9.192;2023-12-20T03:19:01;4.40;98.30
28460;DHT22;32528;45.712;9.192;2023-12-20T03:21:02;4.20;98.20
28460;DHT22;32528;45.712;9.192;2023-12-20T03:23:03;4.30;98.00
28460;DHT22;32528;45.712;9.192;2023-12-20T03:25:04;4.30;98.10
28460;DHT22;32528;45.712;9.192;2023-12-20T03:27:05;4.30;98.10
28460;DHT22;32528;45.712;9.192;2023-12-20T03:29:06;4.30;98.20
28460;DHT22;32528;45.712;9.192;2023-12-20T03:31:06;4.30;98.10
28460;DHT22;32528;45.712;9.192;2023-12-20T03:33:07;4.50;98.00
28460;DHT22;32528;45.712;9.192;2023-12-20T03:35:08;4.70;97.80
28460;DHT22;32528;45.712;9.192;2023-12-20T03:37:09;4.70;97.70
28460;DHT22;32528;45.712;9.192;2023-12-20T03:39:09;4.70;97.70
28460;DHT22;32528;45.712;9.192;2023-12-20T03:41:10;4.70;97.60
28460;DHT22;32528;45.712;9.192;2023-12-20T03:43:11;4.60;97.60
28460;DHT22;32528;45.712;9.192;2023-12-20T03:45:12;4.60;97.90
28460;DHT22;32528;45.712;9.192;2023-12-20T03:47:12;4.40;98.00
28460;DHT22;32528;45.712;9.192;2023-12-20T03:49:13;4.40;98.10
28460;DHT22;32528;45.712;9.192;2023-12-20T03:51:14;4.40;98.10
28460;DHT22;32528;45.712;9.192;2023-12-20T03:53:14;4.40;98.10
28460;DHT22;32528;45.712;9.192;2023-12-20T03:55:15;4.40;98.10
28460;DHT22;32528;45.712;9.192;2023-12-20T03:57:16;4.40;98.20
28460;DHT22;32528;45.712;9.192;2023-12-20T03:59:18;4.50;98.20
28460;DHT22;32528;45.712;9.192;2023-12-20T04:01:19;4.50;98.20
28460;DHT22;32528;45.712;9.192;2023-12-20T04:03:19;4.50;98.10
28460;DHT22;32528;45.712;9.192;2023-12-20T04:05:20;4.50;97.80
28460;DHT22;32528;45.712;9.192;2023-12-20T04:07:21;4.50;97.80
28460;DHT22;32528;45.712;9.192;2023-12-20T04:09:21;4.50;97.80
28460;DHT22;32528;45.712;9.192;2023-12-20T04:11:22;4.50;98.00
28460;DHT22;32528;45.712;9.192;2023-12-20T04:13:23;4.40;98.00
28460;DHT22;32528;45.712;9.192;2023-12-20T04:15:24;4.50;97.90
28460;DHT22;32528;45.712;9.192;2023-12-20T04:17:25;4.50;97.90
28460;DHT22;32528;45.712;9.192;2023-12-20T04:19:25;4.60;97.80
28460;DHT22;32528;45.712;9.192;2023-12-20T04:21:26;4.80;97.60
28460;DHT22;32528;45.712;9.192;2023-12-20T04:23:27;4.80;97.70
28460;DHT22;32528;45.712;9.192;2023-12-20T04:25:27;4.80;97.60
28460;DHT22;32528;45.712;9.192;2023-12-20T04:27:28;4.80;97.50
28460;DHT22;32528;45.712;9.192;2023-12-20T04:29:29;4.80;97.50
28460;DHT22;32528;45.712;9.192;2023-12-20T04:31:30;4.80;97.70
28460;DHT22;32528;45.712;9.192;2023-12-20T04:33:30;4.70;97.80
28460;DHT22;32528;45.712;9.192;2023-12-20T04:35:31;4.70;97.80
28460;DHT22;32528;45.712;9.192;2023-12-20T04:37:32;4.80;97.50
28460;DHT22;32528;45.712;9.192;2023-12-20T04:39:32;4.90;97.40
28460;DHT22;32528;45.712;9.192;2023-12-20T04:41:33;5.00;97.50
28460;DHT22;32528;45.712;9.192;2023-12-20T04:43:34;5.10;97.40
28460;DHT22;32528;45.712;9.192;2023-12-20T04:45:35;5.20;97.30
28460;DHT22;32528;45.712;9.192;2023-12-20T04:47:36;5.30;97.20
28460;DHT22;32528;45.712;9.192;2023-12-20T04:49:37;5.20;97.20
28460;DHT22;32528;45.712;9.192;2023-12-20T04:51:37;5.20;97.20
28460;DHT22;32528;45.712;9.192;2023-12-20T04:53:38;5.20;97.20
28460;DHT22;32528;45.712;9.192;2023-12-20T04:55:39;5.10;97.20
28460;DHT22;32528;45.712;9.192;2023-12-20T04:57:40;5.10;97.30
28460;DHT22;32528;45.712;9.192;2023-12-20T04:59:40;5.00;97.50
28460;DHT22;32528;45.712;9.192;2023-12-20T05:01:42;5.00;97.60
28460;DHT22;32528;45.712;9.192;2023-12-20T05:03:42;5.10;97.60
28460;DHT22;32528;45.712;9.192;2023-12-20T05:05:43;5.00;97.40
28460;DHT22;32528;45.712;9.192;2023-12-20T05:07:44;5.00;97.50
28460;DHT22;32528;45.712;9.192;2023-12-20T05:09:45;5.00;97.50
28460;DHT22;32528;45.712;9.192;2023-12-20T05:11:45;5.10;97.60
28460;DHT22;32528;45.712;9.192;2023-12-20T05:13:46;4.90;97.70
28460;DHT22;32528;45.712;9.192;2023-12-20T05:15:47;4.90;97.80
28460;DHT22;32528;45.712;9.192;2023-12-20T05:17:48;5.00;97.70
28460;DHT22;32528;45.712;9.192;2023-12-20T05:19:48;5.00;97.70
28460;DHT22;32528;45.712;9.192;2023-12-20T05:21:49;5.10;97.50
28460;DHT22;32528;45.712;9.192;2023-12-20T05:23:50;5.10;97.50
28460;DHT22;32528;45.712;9.192;2023-12-20T05:25:51;5.10;97.70
28460;DHT22;32528;45.712;9.192;2023-12-20T05:27:52;5.10;97.80
28460;DHT22;32528;45.712;9.192;2023-12-20T05:29:52;4.90;97.70
28460;DHT22;32528;45.712;9.192;2023-12-20T05:31:54;5.00;97.60
28460;DHT22;32528;45.712;9.192;2023-12-20T05:33:54;5.10;97.80
28460;DHT22;32528;45.712;9.192;2023-12-20T05:35:55;5.00;97.50
28460;DHT22;32528;45.712;9.192;2023-12-20T05:37:56;5.10;97.60
28460;DHT22;32528;45.712;9.192;2023-12-20T05:39:56;5.20;97.60
28460;DHT22;32528;45.712;9.192;2023-12-20T05:41:57;5.10;97.50
28460;DHT22;32528;45.712;9.192;2023-12-20T05:43:58;5.20;97.70
28460;DHT22;32528;45.712;9.192;2023-12-20T05:45:59;5.20;97.60
28460;DHT22;32528;45.712;9.192;2023-12-20T05:48:00;5.30;97.50
28460;DHT22;32528;45.712;9.192;2023-12-20T05:50:01;5.30;97.50
28460;DHT22;32528;45.712;9.192;2023-12-20T05:52:01;5.40;97.50
28460;DHT22;32528;45.712;9.192;2023-12-20T05:54:02;5.40;97.50
28460;DHT22;32528;45.712;9.192;2023-12-20T05:56:04;5.40;97.40
28460;DHT22;32528;45.712;9.192;2023-12-20T05:58:04;5.50;97.20
28460;DHT22;32528;45.712;9.192;2023-12-20T06:00:06;5.40;97.20
28460;DHT22;32528;45.712;9.192;2023-12-20T06:02:12;5.40;97.40
28460;DHT22;32528;45.712;9.192;2023-12-20T06:04:13;5.50;97.30
28460;DHT22;32528;45.712;9.192;2023-12-20T06:06:14;5.50;97.20
28460;DHT22;32528;45.712;9.192;2023-12-20T06:08:15;5.50;97.40
28460;DHT22;32528;45.712;9.192;2023-12-20T06:10:16;5.30;97.50
28460;DHT22;32528;45.712;9.192;2023-12-20T06:12:17;5.30;97.60
28460;DHT22;32528;45.712;9.192;2023-12-20T06:14:17;5.30;97.50
28460;DHT22;32528;45.712;9.192;2023-12-20T06:16:18;5.40;97.50
28460;DHT22;32528;45.712;9.192;2023-12-20T06:18:19;5.40;97.30
28460;DHT22;32528;45.712;9.192;2023-12-20T06:20:20;5.50;97.20
28460;DHT22;32528;45.712;9.192;2023-12-20T06:22:20;5.60;97.20
28460;DHT22;32528;45.712;9.192;2023-12-20T06:24:21;5.60;97.30
28460;DHT22;32528;45.712;9.192;2023-12-20T06:26:22;5.60;97.30
28460;DHT22;32528;45.712;9.192;2023-12-20T06:28:23;5.60;97.00
28460;DHT22;32528;45.712;9.192;2023-12-20T06:30:23;5.70;97.10
28460;DHT22;32528;45.712;9.192;2023-12-20T06:32:26;5.70;97.00
28460;DHT22;32528;45.712;9.192;2023-12-20T06:34:26;5.70;96.70
28460;DHT22;32528;45.712;9.192;2023-12-20T06:36:27;5.80;96.60
28460;DHT22;32528;45.712;9.192;2023-12-20T06:38:28;5.90;96.70
28460;DHT22;32528;45.712;9.192;2023-12-20T06:40:28;6.10;96.60
28460;DHT22;32528;45.712;9.192;2023-12-20T06:42:29;6.10;96.30
28460;DHT22;32528;45.712;9.192;2023-12-20T06:44:30;6.10;95.90
28460;DHT22;32528;45.712;9.192;2023-12-20T06:46:30;6.20;96.00
28460;DHT22;32528;45.712;9.192;2023-12-20T06:48:31;6.10;96.20
28460;DHT22;32528;45.712;9.192;2023-12-20T06:50:32;6.10;95.90
28460;DHT22;32528;45.712;9.192;2023-12-20T06:52:32;6.10;96.20
28460;DHT22;32528;45.712;9.192;2023-12-20T06:54:33;6.10;96.20
28460;DHT22;32528;45.712;9.192;2023-12-20T06:56:35;6.10;96.30
28460;DHT22;32528;45.712;9.192;2023-12-20T06:58:35;6.10;96.30
28460;DHT22;32528;45.712;9.192;2023-12-20T07:00:38;6.10;96.40
28460;DHT22;32528;45.712;9.192;2023-12-20T07:02:38;6.10;96.40
28460;DHT22;32528;45.712;9.192;2023-12-20T07:04:40;6.10;96.20
28460;DHT22;32528;45.712;9.192;2023-12-20T07:06:41;6.20;96.30
28460;DHT22;32528;45.712;9.192;2023-12-20T07:08:42;6.30;96.30
28460;DHT22;32528;45.712;9.192;2023-12-20T07:10:42;6.20;96.10
28460;DHT22;32528;45.712;9.192;2023-12-20T07:12:43;6.30;96.10
28460;DHT22;32528;45.712;9.192;2023-12-20T07:14:45;6.30;95.90
28460;DHT22;32528;45.712;9.192;2023-12-20T07:16:45;6.30;96.10
28460;DHT22;32528;45.712;9.192;2023-12-20T07:18:46;6.30;96.20
28460;DHT22;32528;45.712;9.192;2023-12-20T07:20:47;6.30;96.30
28460;DHT22;32528;45.712;9.192;2023-12-20T07:22:48;6.30;96.20
28460;DHT22;32528;45.712;9.192;2023-12-20T07:24:49;6.30;96.00
28460;DHT22;32528;45.712;9.192;2023-12-20T07:26:50;6.30;96.00
28460;DHT22;32528;45.712;9.192;2023-12-20T07:28:51;6.40;95.90
28460;DHT22;32528;45.712;9.192;2023-12-20T07:30:52;6.40;96.10
28460;DHT22;32528;45.712;9.192;2023-12-20T07:32:52;6.50;95.70
28460;DHT22;32528;45.712;9.192;2023-12-20T07:34:53;6.50;95.80
28460;DHT22;32528;45.712;9.192;2023-12-20T07:36:55;6.60;96.00
28460;DHT22;32528;45.712;9.192;2023-12-20T07:38:55;6.50;95.80
28460;DHT22;32528;45.712;9.192;2023-12-20T07:40:56;6.50;95.90
28460;DHT22;32528;45.712;9.192;2023-12-20T07:42:57;6.60;96.00
28460;DHT22;32528;45.712;9.192;2023-12-20T07:44:58;6.60;95.90
28460;DHT22;32528;45.712;9.192;2023-12-20T07:46:59;6.60;96.10
28460;DHT22;32528;45.712;9.192;2023-12-20T07:49:01;6.60;96.00
28460;DHT22;32528;45.712;9.192;2023-12-20T07:51:03;6.60;96.00
28460;DHT22;32528;45.712;9.192;2023-12-20T07:53:04;6.70;96.30
28460;DHT22;32528;45.712;9.192;2023-12-20T07:55:05;6.70;96.10
28460;DHT22;32528;45.712;9.192;2023-12-20T07:57:06;6.70;96.10
28460;DHT22;32528;45.712;9.192;2023-12-20T07:59:06;6.70;96.00
28460;DHT22;32528;45.712;9.192;2023-12-20T08:01:07;6.80;96.00
28460;DHT22;32528;45.712;9.192;2023-12-20T08:03:08;6.80;96.00
28460;DHT22;32528;45.712;9.192;2023-12-20T08:05:09;6.80;96.10
28460;DHT22;32528;45.712;9.192;2023-12-20T08:07:09;6.90;95.90
28460;DHT22;32528;45.712;9.192;2023-12-20T08:09:10;7.00;95.90
28460;DHT22;32528;45.712;9.192;2023-12-20T08:11:11;7.00;95.80
28460;DHT22;32528;45.712;9.192;2023-12-20T08:13:12;7.10;95.80
28460;DHT22;32528;45.712;9.192;2023-12-20T08:15:12;7.10;95.60
28460;DHT22;32528;45.712;9.192;2023-12-20T08:17:13;7.10;95.80
28460;DHT22;32528;45.712;9.192;2023-12-20T08:19:16;7.10;95.80
28460;DHT22;32528;45.712;9.192;2023-12-20T08:21:17;7.20;95.90
28460;DHT22;32528;45.712;9.192;2023-12-20T08:23:20;7.20;95.80
28460;DHT22;32528;45.712;9.192;2023-12-20T08:25:24;7.30;95.60
28460;DHT22;32528;45.712;9.192;2023-12-20T08:27:24;7.30;95.50
28460;DHT22;32528;45.712;9.192;2023-12-20T08:29:26;7.30;95.60
28460;DHT22;32528;45.712;9.192;2023-12-20T08:31:27;7.30;95.60
28460;DHT22;32528;45.712;9.192;2023-12-20T08:33:27;7.40;95.60
28460;DHT22;32528;45.712;9.192;2023-12-20T08:35:28;7.40;95.70
28460;DHT22;32528;45.712;9.192;2023-12-20T08:37:29;7.40;95.80
28460;DHT22;32528;45.712;9.192;2023-12-20T08:39:30;7.40;95.90
28460;DHT22;32528;45.712;9.192;2023-12-20T08:41:31;7.40;96.00
28460;DHT22;32528;45.712;9.192;2023-12-20T08:43:32;7.40;96.10
28460;DHT22;32528;45.712;9.192;2023-12-20T08:45:34;7.40;96.20
28460;DHT22;32528;45.712;9.192;2023-12-20T08:47:35;7.30;96.20
28460;DHT22;32528;45.712;9.192;2023-12-20T08:49:35;7.40;96.20
28460;DHT22;32528;45.712;9.192;2023-12-20T08:51:36;7.40;96.00
28460;DHT22;32528;45.712;9.192;2023-12-20T08:53:40;7.40;95.90
28460;DHT22;32528;45.712;9.192;2023-12-20T08:55:42;7.50;96.00
28460;DHT22;32528;45.712;9.192;2023-12-20T08:57:42;7.50;96.10
28460;DHT22;32528;45.712;9.192;2023-12-20T08:59:43;7.50;96.10
28460;DHT22;32528;45.712;9.192;2023-12-20T09:01:44;7.50;96.20
28460;DHT22;32528;45.712;9.192;2023-12-20T09:03:45;7.60;96.10
28460;DHT22;32528;45.712;9.192;2023-12-20T09:05:45;7.60;96.30
28460;DHT22;32528;45.712;9.192;2023-12-20T09:07:46;7.50;96.10
28460;DHT22;32528;45.712;9.192;2023-12-20T09:09:47;7.60;96.10
28460;DHT22;32528;45.712;9.192;2023-12-20T09:11:48;7.70;96.10
28460;DHT22;32528;45.712;9.192;2023-12-20T09:13:50;7.80;95.90
28460;DHT22;32528;45.712;9.192;2023-12-20T09:15:51;7.80;96.00
28460;DHT22;32528;45.712;9.192;2023-12-20T09:17:52;7.80;95.90
28460;DHT22;32528;45.712;9.192;2023-12-20T09:19:53;7.80;96.00
28460;DHT22;32528;45.712;9.192;2023-12-20T09:21:54;7.90;95.90
28460;DHT22;32528;45.712;9.192;2023-12-20T09:23:55;7.90;95.90
28460;DHT22;32528;45.712;9.192;2023-12-20T09:25:56;7.90;95.80
28460;DHT22;32528;45.712;9.192;2023-12-20T09:27:56;8.00;95.80
28460;DHT22;32528;45.712;9.192;2023-12-20T09:29:57;8.10;95.80
28460;DHT22;32528;45.712;9.192;2023-12-20T09:31:58;8.10;95.70
28460;DHT22;32528;45.712;9.192;2023-12-20T09:33:59;8.20;95.70
28460;DHT22;32528;45.712;9.192;2023-12-20T09:35:59;8.30;95.80
28460;DHT22;32528;45.712;9.192;2023-12-20T09:38:00;8.30;95.50
28460;DHT22;32528;45.712;9.192;2023-12-20T09:40:01;8.40;94.90
28460;DHT22;32528;45.712;9.192;2023-12-20T09:42:04;8.50;94.90
28460;DHT22;32528;45.712;9.192;2023-12-20T09:44:07;8.60;94.80
28460;DHT22;32528;45.712;9.192;2023-12-20T09:46:12;8.70;95.00
28460;DHT22;32528;45.712;9.192;2023-12-20T09:48:17;8.80;94.80
28460;DHT22;32528;45.712;9.192;2023-12-20T09:50:20;8.90;94.80
28460;DHT22;32528;45.712;9.192;2023-12-20T09:52:22;9.00;94.60
28460;DHT22;32528;45.712;9.192;2023-12-20T09:54:25;9.10;94.50
28460;DHT22;32528;45.712;9.192;2023-12-20T09:56:26;9.20;94.50
28460;DHT22;32528;45.712;9.192;2023-12-20T09:58:27;9.20;94.00
28460;DHT22;32528;45.712;9.192;2023-12-20T10:00:28;9.30;93.80
28460;DHT22;32528;45.712;9.192;2023-12-20T10:02:29;9.50;93.40
28460;DHT22;32528;45.712;9.192;2023-12-20T10:04:32;9.60;92.80
28460;DHT22;32528;45.712;9.192;2023-12-20T10:06:33;9.80;92.80
28460;DHT22;32528;45.712;9.192;2023-12-20T10:08:34;9.90;92.80
28460;DHT22;32528;45.712;9.192;2023-12-20T10:10:35;10.00;93.20
28460;DHT22;32528;45.712;9.192;2023-12-20T10:12:35;10.10;93.30
28460;DHT22;32528;45.712;9.192;2023-12-20T10:14:37;10.20;93.40
28460;DHT22;32528;45.712;9.192;2023-12-20T10:16:38;10.10;93.00
28460;DHT22;32528;45.712;9.192;2023-12-20T10:18:39;10.10;93.10
28460;DHT22;32528;45.712;9.192;2023-12-20T10:20:41;10.10;93.30
28460;DHT22;32528;45.712;9.192;2023-12-20T10:22:43;10.10;93.40
28460;DHT22;32528;45.712;9.192;2023-12-20T10:24:45;10.20;93.10
28460;DHT22;32528;45.712;9.192;2023-12-20T10:26:47;10.30;92.90
28460;DHT22;32528;45.712;9.192;2023-12-20T10:28:55;10.30;92.70
28460;DHT22;32528;45.712;9.192;2023-12-20T10:30:56;10.40;92.70
28460;DHT22;32528;45.712;9.192;2023-12-20T10:32:57;10.40;92.70
28460;DHT22;32528;45.712;9.192;2023-12-20T10:34:57;10.50;92.80
28460;DHT22;32528;45.712;9.192;2023-12-20T10:37:00;10.50;92.70
28460;DHT22;32528;45.712;9.192;2023-12-20T10:39:01;10.60;92.80
28460;DHT22;32528;45.712;9.192;2023-12-20T10:41:04;10.60;92.80
28460;DHT22;32528;45.712;9.192;2023-12-20T10:43:06;10.60;92.60
28460;DHT22;32528;45.712;9.192;2023-12-20T10:45:09;10.60;92.40
28460;DHT22;32528;45.712;9.192;2023-12-20T10:47:11;10.60;92.20
28460;DHT22;32528;45.712;9.192;2023-12-20T10:49:15;10.60;92.60
28460;DHT22;32528;45.712;9.192;2023-12-20T10:51:17;10.70;92.20
28460;DHT22;32528;45.712;9.192;2023-12-20T10:53:19;10.70;92.00
28460;DHT22;32528;45.712;9.192;2023-12-20T10:55:22;10.70;92.00
28460;DHT22;32528;45.712;9.192;2023-12-20T10:57:26;10.80;92.20
28460;DHT22;32528;45.712;9.192;2023-12-20T10:59:28;10.70;92.20
28460;DHT22;32528;45.712;9.192;2023-12-20T11:01:30;10.80;92.40
28460;DHT22;32528;45.712;9.192;2023-12-20T11:03:35;10.80;92.40
28460;DHT22;32528;45.712;9.192;2023-12-20T11:05:50;10.80;92.30
28460;DHT22;32528;45.712;9.192;2023-12-20T11:08:09;10.90;92.20
28460;DHT22;32528;45.712;9.192;2023-12-20T11:10:25;11.00;91.70
28460;DHT22;32528;45.712;9.192;2023-12-20T11:12:53;11.10;91.60
28460;DHT22;32528;45.712;9.192;2023-12-20T11:14:55;11.30;91.40
28460;DHT22;32528;45.712;9.192;2023-12-20T11:17:08;11.40;91.40
28460;DHT22;32528;45.712;9.192;2023-12-20T11:19:11;11.40;91.20
28460;DHT22;32528;45.712;9.192;2023-12-20T11:21:14;11.40;91.30
28460;DHT22;32528;45.712;9.192;2023-12-20T11:23:16;11.50;91.10
28460;DHT22;32528;45.712;9.192;2023-12-20T11:25:17;11.60;90.90
28460;DHT22;32528;45.712;9.192;2023-12-20T11:27:19;11.60;91.00
28460;DHT22;32528;45.712;9.192;2023-12-20T11:31:40;11.50;90.70
28460;DHT22;32528;45.712;9.192;2023-12-20T11:33:41;11.50;90.70
28460;DHT22;32528;45.712;9.192;2023-12-20T11:35:43;11.40;90.80
28460;DHT22;32528;45.712;9.192;2023-12-20T11:37:46;11.20;91.00
28460;DHT22;32528;45.712;9.192;2023-12-20T11:39:56;11.00;91.30
28460;DHT22;32528;45.712;9.192;2023-12-20T11:42:04;11.00;91.40
28460;DHT22;32528;45.712;9.192;2023-12-20T11:44:07;10.80;91.80
28460;DHT22;32528;45.712;9.192;2023-12-20T11:46:09;10.70;92.00
28460;DHT22;32528;45.712;9.192;2023-12-20T11:48:10;10.70;92.20
28460;DHT22;32528;45.712;9.192;2023-12-20T11:50:11;10.60;92.30
28460;DHT22;32528;45.712;9.192;2023-12-20T11:52:12;10.50;92.40
28460;DHT22;32528;45.712;9.192;2023-12-20T11:54:14;10.50;92.40
28460;DHT22;32528;45.712;9.192;2023-12-20T11:56:15;10.50;92.30
28460;DHT22;32528;45.712;9.192;2023-12-20T11:58:16;10.40;92.40
28460;DHT22;32528;45.712;9.192;2023-12-20T12:00:18;10.30;92.50
28460;DHT22;32528;45.712;9.192;2023-12-20T12:02:18;10.30;92.70
28460;DHT22;32528;45.712;9.192;2023-12-20T12:04:19;10.20;92.80
28460;DHT22;32528;45.712;9.192;2023-12-20T12:06:20;10.20;92.70
28460;DHT22;32528;45.712;9.192;2023-12-20T12:08:21;10.30;92.80
28460;DHT22;32528;45.712;9.192;2023-12-20T12:10:21;10.40;92.70
28460;DHT22;32528;45.712;9.192;2023-12-20T12:12:23;10.60;92.40
28460;DHT22;32528;45.712;9.192;2023-12-20T12:14:25;10.60;92.40
28460;DHT22;32528;45.712;9.192;2023-12-20T12:16:26;10.80;92.40
28460;DHT22;32528;45.712;9.192;2023-12-20T12:18:27;10.90;92.40
28460;DHT22;32528;45.712;9.192;2023-12-20T12:20:28;10.90;92.40
28460;DHT22;32528;45.712;9.192;2023-12-20T12:22:29;10.90;92.10
28460;DHT22;32528;45.712;9.192;2023-12-20T12:24:30;11.00;92.20
28460;DHT22;32528;45.712;9.192;2023-12-20T12:26:31;11.00;92.10
28460;DHT22;32528;45.712;9.192;2023-12-20T12:28:34;11.10;92.10
28460;DHT22;32528;45.712;9.192;2023-12-20T12:30:34;11.10;92.10
28460;DHT22;32528;45.712;9.192;2023-12-20T12:32:36;11.20;92.10
28460;DHT22;32528;45.712;9.192;2023-12-20T12:34:37;11.20;92.10
28460;DHT22;32528;45.712;9.192;2023-12-20T12:36:38;11.20;92.20
28460;DHT22;32528;45.712;9.192;2023-12-20T12:38:41;11.10;92.20
28460;DHT22;32528;45.712;9.192;2023-12-20T12:40:43;11.10;92.30
28460;DHT22;32528;45.712;9.192;2023-12-20T12:42:45;11.10;92.30
28460;DHT22;32528;45.712;9.192;2023-12-20T12:44:45;11.20;92.10
28460;DHT22;32528;45.712;9.192;2023-12-20T12:46:47;11.10;92.00
28460;DHT22;32528;45.712;9.192;2023-12-20T12:48:50;11.10;92.00
28460;DHT22;32528;45.712;9.192;2023-12-20T12:50:51;11.10;92.20
28460;DHT22;32528;45.712;9.192;2023-12-20T12:52:53;11.00;92.30
28460;DHT22;32528;45.712;9.192;2023-12-20T12:54:54;11.00;92.40
28460;DHT22;32528;45.712;9.192;2023-12-20T12:56:55;11.00;92.50
28460;DHT22;32528;45.712;9.192;2023-12-20T12:58:56;11.00;92.40